createdAt,value
2023-02-18T00:01:30.736Z,11.90
2023-02-18T00:03:58.795Z,11.90
2023-02-18T00:06:28.492Z,11.90
2023-02-18T00:08:58.762Z,12.00
2023-02-18T00:11:26.997Z,12.00
2023-02-18T00:13:58.624Z,12.10
2023-02-18T00:16:27.331Z,12.10
2023-02-18T00:18:56.887Z,12.00
2023-02-18T00:21:25.174Z,12.00
2023-02-18T00:23:53.291Z,12.00
2023-02-18T00:26:21.954Z,12.00
2023-02-18T00:28:51.406Z,12.00
2023-02-18T00:31:23.221Z,12.00
2023-02-18T00:37:41.976Z,11.90
2023-02-18T00:40:10.264Z,12.00
2023-02-18T00:42:38.090Z,11.90
2023-02-18T00:45:06.567Z,12.00
2023-02-18T00:47:42.639Z,12.10
2023-02-18T00:50:11.115Z,12.10
2023-02-18T00:52:38.982Z,12.10
2023-02-18T00:55:11.971Z,12.00
2023-02-18T00:57:39.789Z,12.00
2023-02-18T01:00:09.080Z,11.90
2023-02-18T01:02:37.229Z,11.90
2023-02-18T01:05:06.830Z,11.80
2023-02-18T01:07:34.662Z,11.80
2023-02-18T01:10:02.492Z,11.70
2023-02-18T01:12:30.325Z,11.70
2023-02-18T01:14:58.179Z,11.70
2023-02-18T01:17:26.297Z,11.70
2023-02-18T01:19:54.108Z,11.70
2023-02-18T01:22:23.292Z,11.70
2023-02-18T01:24:51.242Z,11.80
2023-02-18T01:27:19.180Z,11.80
2023-02-18T01:29:46.990Z,11.80
2023-02-18T01:32:14.953Z,11.80
2023-02-18T01:34:42.825Z,11.80
2023-02-18T01:37:10.618Z,11.90
2023-02-18T01:39:39.789Z,11.80
2023-02-18T01:42:08.054Z,11.90
2023-02-18T01:44:36.407Z,11.90
2023-02-18T01:47:04.314Z,11.90
2023-02-18T01:49:35.033Z,11.90
2023-02-18T01:52:06.033Z,11.90
2023-02-18T01:54:36.760Z,11.90
2023-02-18T01:57:08.559Z,11.90
2023-02-18T01:59:40.494Z,11.90
2023-02-18T02:02:12.129Z,11.90
2023-02-18T02:04:40.217Z,11.80
2023-02-18T02:07:08.431Z,11.70
2023-02-18T02:09:36.983Z,11.70
2023-02-18T02:12:25.971Z,11.60
2023-02-18T02:15:19.564Z,11.60
2023-02-18T02:17:56.989Z,11.60
2023-02-18T02:21:13.090Z,11.50
2023-02-18T02:24:24.820Z,11.50
2023-02-18T02:27:07.457Z,11.50
2023-02-18T02:30:12.568Z,11.40
2023-02-18T02:33:17.704Z,11.40
2023-02-18T02:35:53.799Z,11.40
2023-02-18T02:38:30.570Z,11.30
2023-02-18T02:41:04.949Z,11.30
2023-02-18T02:43:38.670Z,11.40
2023-02-18T02:46:11.602Z,11.40
2023-02-18T02:48:49.689Z,11.40
2023-02-18T02:51:24.897Z,11.30
2023-02-18T02:53:52.766Z,11.30
2023-02-18T02:56:23.250Z,11.30
2023-02-18T02:58:59.396Z,11.30
2023-02-18T03:01:37.762Z,11.30
2023-02-18T03:04:27.609Z,11.30
2023-02-18T03:07:35.427Z,11.30
2023-02-18T03:10:18.062Z,11.40
2023-02-18T03:12:56.695Z,11.40
2023-02-18T03:15:31.606Z,11.40
2023-02-18T03:18:03.629Z,11.50
2023-02-18T03:20:36.962Z,11.40
2023-02-18T03:23:10.343Z,11.40
2023-02-18T03:25:41.093Z,11.40
2023-02-18T03:28:12.816Z,11.30
2023-02-18T03:30:44.433Z,11.40
2023-02-18T03:33:18.305Z,11.40
2023-02-18T03:35:48.234Z,11.30
2023-02-18T03:38:22.758Z,11.40
2023-02-18T03:40:50.772Z,11.30
2023-02-18T03:43:18.820Z,11.40
2023-02-18T03:45:46.692Z,11.40
2023-02-18T03:48:14.651Z,11.30
2023-02-18T03:50:42.447Z,11.30
2023-02-18T03:53:10.252Z,11.40
2023-02-18T03:55:39.435Z,11.40
2023-02-18T03:58:07.371Z,11.30
2023-02-18T04:00:35.389Z,11.30
2023-02-18T04:03:03.252Z,11.30
2023-02-18T04:05:31.018Z,11.20
2023-02-18T04:07:58.809Z,11.30
2023-02-18T04:10:26.618Z,11.20
2023-02-18T04:12:55.795Z,11.20
2023-02-18T04:15:23.605Z,11.20
2023-02-18T04:17:51.592Z,11.20
2023-02-18T04:20:19.672Z,11.30
2023-02-18T04:22:47.472Z,11.30
2023-02-18T04:25:15.326Z,11.20
2023-02-18T04:27:43.128Z,11.20
2023-02-18T04:30:13.425Z,11.20
2023-02-18T04:32:41.545Z,11.20
2023-02-18T04:35:09.649Z,11.20
2023-02-18T04:37:37.442Z,11.20
2023-02-18T04:40:06.131Z,11.20
2023-02-18T04:42:34.085Z,11.20
2023-02-18T04:45:02.066Z,11.30
2023-02-18T04:47:31.613Z,11.30
2023-02-18T04:49:59.436Z,11.30
2023-02-18T04:52:27.370Z,11.30
2023-02-18T04:54:55.211Z,11.30
2023-02-18T04:57:23.033Z,11.20
2023-02-18T04:59:50.830Z,11.20
2023-02-18T05:02:18.627Z,11.20
2023-02-18T05:04:48.901Z,11.20
2023-02-18T05:07:17.180Z,11.20
2023-02-18T05:09:45.128Z,11.20
2023-02-18T05:12:12.931Z,11.20
2023-02-18T05:14:40.725Z,11.10
2023-02-18T05:17:08.505Z,11.10
2023-02-18T05:19:36.360Z,11.00
2023-02-18T05:22:05.533Z,11.10
2023-02-18T05:24:33.344Z,11.00
2023-02-18T05:27:01.600Z,11.00
2023-02-18T05:29:29.454Z,11.00
2023-02-18T05:31:57.409Z,11.00
2023-02-18T05:34:25.300Z,10.90
2023-02-18T05:36:53.091Z,10.90
2023-02-18T05:39:22.386Z,11.10
2023-02-18T05:41:50.146Z,11.30
2023-02-18T05:44:33.574Z,11.30
2023-02-18T05:47:02.815Z,11.30
2023-02-18T05:49:31.401Z,11.30
2023-02-18T05:52:00.186Z,11.30
2023-02-18T05:54:29.576Z,11.30
2023-02-18T05:56:57.383Z,11.50
2023-02-18T05:59:25.495Z,11.50
2023-02-18T06:01:54.846Z,11.50
2023-02-18T06:04:22.696Z,11.60
2023-02-18T06:06:50.492Z,11.50
2023-02-18T06:09:18.423Z,11.30
2023-02-18T06:11:47.602Z,11.20
2023-02-18T06:14:15.506Z,11.10
2023-02-18T06:16:43.387Z,11.10
2023-02-18T06:19:11.179Z,11.00
2023-02-18T06:21:39.001Z,11.00
2023-02-18T06:24:07.427Z,11.00
2023-02-18T06:26:35.252Z,11.00
2023-02-18T06:29:04.493Z,11.00
2023-02-18T06:31:32.470Z,11.00
2023-02-18T06:34:00.424Z,11.00
2023-02-18T06:36:28.540Z,11.00
2023-02-18T06:38:57.387Z,11.00
2023-02-18T06:41:25.203Z,11.00
2023-02-18T06:43:53.526Z,11.00
2023-02-18T06:46:22.936Z,10.90
2023-02-18T06:48:50.749Z,11.00
2023-02-18T06:51:19.521Z,11.00
2023-02-18T06:53:47.405Z,11.00
2023-02-18T06:56:15.229Z,11.00
2023-02-18T06:58:43.142Z,10.90
2023-02-18T07:01:11.005Z,10.90
2023-02-18T07:03:40.181Z,10.90
2023-02-18T07:06:08.722Z,10.90
2023-02-18T07:08:37.757Z,10.90
2023-02-18T07:11:06.392Z,10.80
2023-02-18T07:13:34.862Z,10.80
2023-02-18T07:16:03.525Z,10.90
2023-02-18T07:18:31.606Z,10.90
2023-02-18T07:21:01.131Z,10.90
2023-02-18T07:23:29.582Z,10.80
2023-02-18T07:26:05.602Z,10.80
2023-02-18T07:28:34.062Z,10.80
2023-02-18T07:31:02.582Z,10.80
2023-02-18T07:33:31.059Z,10.80
2023-02-18T07:36:02.013Z,10.80
2023-02-18T07:38:31.051Z,10.80
2023-02-18T07:40:59.977Z,10.80
2023-02-18T07:43:28.169Z,10.80
2023-02-18T07:45:56.690Z,10.90
2023-02-18T07:48:25.312Z,10.80
2023-02-18T07:50:53.599Z,10.90
2023-02-18T07:53:23.030Z,10.90
2023-02-18T07:55:51.346Z,10.90
2023-02-18T07:58:20.626Z,10.90
2023-02-18T08:00:50.503Z,10.90
2023-02-18T08:03:20.605Z,11.00
2023-02-18T08:05:50.364Z,11.00
2023-02-18T08:08:20.779Z,11.00
2023-02-18T08:10:51.064Z,11.10
2023-02-18T08:13:19.477Z,11.10
2023-02-18T08:15:47.861Z,11.10
2023-02-18T08:18:19.400Z,11.10
2023-02-18T08:20:48.730Z,11.10
2023-02-18T08:23:17.506Z,11.10
2023-02-18T08:25:49.991Z,11.20
2023-02-18T08:28:20.283Z,11.10
2023-02-18T08:30:48.895Z,11.20
2023-02-18T08:33:17.628Z,11.30
2023-02-18T08:35:57.461Z,11.20
2023-02-18T08:38:27.043Z,11.20
2023-02-18T08:41:03.408Z,11.30
2023-02-18T08:43:33.182Z,11.30
2023-02-18T08:46:02.026Z,11.30
2023-02-18T08:48:31.120Z,11.30
2023-02-18T08:50:59.163Z,11.30
2023-02-18T08:53:27.445Z,11.30
2023-02-18T08:55:55.752Z,11.30
2023-02-18T08:58:23.821Z,11.30
2023-02-18T09:00:53.303Z,11.30
2023-02-18T09:03:21.602Z,11.40
2023-02-18T09:12:21.709Z,11.50
2023-02-18T09:14:49.675Z,11.50
2023-02-18T09:17:18.753Z,11.50
2023-02-18T09:19:46.514Z,11.60
2023-02-18T09:22:14.686Z,11.60
2023-02-18T09:24:43.043Z,11.60
2023-02-18T09:27:11.414Z,11.50
2023-02-18T09:29:40.429Z,11.50
2023-02-18T09:32:13.214Z,11.60
2023-02-18T09:34:45.384Z,11.50
2023-02-18T09:37:14.556Z,11.50
2023-02-18T09:39:42.746Z,11.50
2023-02-18T09:42:16.716Z,11.60
2023-02-18T09:44:47.211Z,11.60
2023-02-18T09:47:19.098Z,11.60
2023-02-18T09:49:53.279Z,11.60
2023-02-18T09:52:23.809Z,11.60
2023-02-18T09:54:51.874Z,11.60
2023-02-18T09:57:26.711Z,11.50
2023-02-18T10:00:00.941Z,11.60
2023-02-18T10:02:29.571Z,11.60
2023-02-18T10:04:59.567Z,11.60
2023-02-18T10:07:30.013Z,11.60
2023-02-18T10:10:00.493Z,11.60
2023-02-18T10:12:31.139Z,11.60
2023-02-18T10:15:01.525Z,11.60
2023-02-18T10:17:33.285Z,11.60
2023-02-18T10:20:07.973Z,11.60
2023-02-18T10:22:38.555Z,11.70
2023-02-18T10:25:08.790Z,11.70
2023-02-18T10:27:39.823Z,11.70
2023-02-18T10:30:23.731Z,11.70
2023-02-18T10:32:57.641Z,11.70
2023-02-18T10:35:35.229Z,11.80
2023-02-18T10:38:10.860Z,11.60
2023-02-18T10:40:53.976Z,11.60
2023-02-18T10:43:31.054Z,11.60
2023-02-18T10:46:08.162Z,11.50
2023-02-18T10:48:53.227Z,11.50
2023-02-18T10:51:25.400Z,11.40
2023-02-18T10:53:54.844Z,11.50
2023-02-18T10:56:41.189Z,11.60
2023-02-18T10:59:14.759Z,11.60
2023-02-18T11:01:44.356Z,11.60
2023-02-18T11:04:18.881Z,11.50
2023-02-18T11:06:50.376Z,11.50
2023-02-18T11:09:29.933Z,11.50
2023-02-18T11:12:09.092Z,11.40
2023-02-18T11:14:40.616Z,11.50
2023-02-18T11:17:19.331Z,11.40
2023-02-18T11:19:54.707Z,11.50
2023-02-18T11:22:26.140Z,11.50
2023-02-18T11:24:57.357Z,11.50
2023-02-18T11:27:29.495Z,11.60
2023-02-18T11:30:02.087Z,11.50
2023-02-18T11:32:31.758Z,11.60
2023-02-18T11:34:59.599Z,11.60
2023-02-18T11:37:28.851Z,11.60
2023-02-18T11:39:57.520Z,11.50
2023-02-18T11:42:27.574Z,11.50
2023-02-18T11:44:57.933Z,11.50
2023-02-18T11:47:28.355Z,11.50
2023-02-18T11:50:21.945Z,11.50
2023-02-18T11:52:52.334Z,11.50
2023-02-18T11:55:23.222Z,11.40
2023-02-18T11:57:55.946Z,11.50
2023-02-18T12:00:38.664Z,11.50
2023-02-18T12:03:14.780Z,11.50
2023-02-18T12:05:43.634Z,11.50
2023-02-18T12:08:18.650Z,11.50
2023-02-18T12:10:51.032Z,11.50
2023-02-18T12:13:25.993Z,11.60
2023-02-18T12:16:06.613Z,11.50
2023-02-18T12:18:54.112Z,11.60
2023-02-18T12:21:43.837Z,11.60
2023-02-18T12:24:26.075Z,11.70
2023-02-18T12:27:02.138Z,11.70
2023-02-18T12:29:43.480Z,11.70
2023-02-18T12:32:27.252Z,11.80
2023-02-18T12:35:06.126Z,11.80
2023-02-18T12:37:58.219Z,11.80
2023-02-18T12:40:45.065Z,11.90
2023-02-18T12:43:23.845Z,12.00
2023-02-18T12:46:18.207Z,12.00
2023-02-18T12:49:09.288Z,12.10
2023-02-18T12:51:54.096Z,12.00
2023-02-18T12:54:38.884Z,12.10
2023-02-18T12:57:26.409Z,12.10
2023-02-18T13:00:24.158Z,12.10
2023-02-18T13:03:18.898Z,12.20
2023-02-18T13:05:57.256Z,12.30
2023-02-18T13:08:39.200Z,12.30
2023-02-18T13:11:20.284Z,12.40
2023-02-18T13:13:58.978Z,12.40
2023-02-18T13:16:29.417Z,12.40
2023-02-18T13:19:03.071Z,12.30
2023-02-18T13:21:32.119Z,12.20
2023-02-18T13:24:02.994Z,12.20
2023-02-18T13:26:33.489Z,12.20
2023-02-18T13:29:19.282Z,12.10
2023-02-18T13:32:03.033Z,12.10
2023-02-18T13:34:35.146Z,12.00
2023-02-18T13:37:12.615Z,11.90
2023-02-18T13:39:50.012Z,11.90
2023-02-18T13:42:36.766Z,11.90
2023-02-18T13:45:25.731Z,11.80
2023-02-18T13:47:54.655Z,11.70
2023-02-18T13:50:32.613Z,11.60
2023-02-18T13:53:15.992Z,11.70
2023-02-18T13:55:54.230Z,11.80
2023-02-18T13:58:25.533Z,11.80
2023-02-18T14:00:59.836Z,11.90
2023-02-18T14:03:56.196Z,11.90
2023-02-18T14:06:26.642Z,11.80
2023-02-18T14:09:06.304Z,11.80
2023-02-18T14:11:49.307Z,11.80
2023-02-18T14:14:38.602Z,11.80
2023-02-18T14:17:38.500Z,11.80
2023-02-18T14:20:46.918Z,11.80
2023-02-18T14:23:44.324Z,11.80
2023-02-18T14:26:22.756Z,11.70
2023-02-18T14:28:55.669Z,11.60
2023-02-18T14:31:47.256Z,11.60
2023-02-18T14:34:32.966Z,11.60
2023-02-18T14:37:12.466Z,11.50
2023-02-18T14:39:50.132Z,11.50
2023-02-18T14:42:29.662Z,11.50
2023-02-18T14:45:11.662Z,11.50
2023-02-18T14:47:54.815Z,11.50
2023-02-18T14:50:24.768Z,11.50
2023-02-18T14:52:56.074Z,11.60
2023-02-18T14:55:27.601Z,11.60
2023-02-18T14:57:59.384Z,11.60
2023-02-18T15:00:32.025Z,11.60
2023-02-18T15:03:02.086Z,11.60
2023-02-18T15:05:33.601Z,11.60
2023-02-18T15:08:03.886Z,11.70
2023-02-18T15:10:40.204Z,11.70
2023-02-18T15:13:15.732Z,11.70
2023-02-18T15:15:45.231Z,11.70
2023-02-18T15:18:22.731Z,11.70
2023-02-18T15:20:52.169Z,11.70
2023-02-18T15:23:20.113Z,11.70
2023-02-18T15:25:52.080Z,11.70
2023-02-18T15:28:25.406Z,11.70
2023-02-18T15:30:53.246Z,11.70
2023-02-18T15:33:22.352Z,11.70
2023-02-18T15:35:52.116Z,11.70
2023-02-18T15:38:21.191Z,11.80
2023-02-18T15:40:53.088Z,11.70
2023-02-18T15:43:25.025Z,11.70
2023-02-18T15:45:55.858Z,11.70
2023-02-18T15:48:32.687Z,11.70
2023-02-18T15:51:16.432Z,11.70
2023-02-18T15:53:47.805Z,11.70
2023-02-18T15:56:22.444Z,11.60
2023-02-18T15:58:50.528Z,11.60
2023-02-18T16:01:28.175Z,11.50
2023-02-18T16:03:56.803Z,11.50
2023-02-18T16:06:28.037Z,11.50
2023-02-18T16:09:02.314Z,11.50
2023-02-18T16:11:33.534Z,11.50
2023-02-18T16:14:01.674Z,11.50
2023-02-18T16:16:32.215Z,11.50
2023-02-18T16:19:00.395Z,11.50
2023-02-18T16:21:38.058Z,11.40
2023-02-18T16:24:24.935Z,11.50
2023-02-18T16:26:55.474Z,11.50
2023-02-18T16:29:26.550Z,11.40
2023-02-18T16:31:54.527Z,11.40
2023-02-18T16:34:22.429Z,11.40
2023-02-18T16:37:09.297Z,11.40
2023-02-18T16:39:37.376Z,11.30
2023-02-18T16:42:06.636Z,11.30
2023-02-18T16:44:35.117Z,11.30
2023-02-18T16:47:03.706Z,11.20
2023-02-18T16:49:32.464Z,11.20
2023-02-18T16:52:06.980Z,11.20
2023-02-18T16:54:35.210Z,11.20
2023-02-18T16:57:03.047Z,11.20
2023-02-18T16:59:31.698Z,11.20
2023-02-18T17:01:59.579Z,11.10
2023-02-18T17:04:27.389Z,11.10
2023-02-18T17:06:55.169Z,11.10
2023-02-18T17:09:27.248Z,11.10
2023-02-18T17:11:56.899Z,11.10
2023-02-18T17:14:24.784Z,11.10
2023-02-18T17:16:55.189Z,11.00
2023-02-18T17:19:23.149Z,11.00
2023-02-18T17:21:51.056Z,11.00
2023-02-18T17:24:19.952Z,11.00
2023-02-18T17:26:49.095Z,11.00
2023-02-18T17:29:17.148Z,11.00
2023-02-18T17:31:47.225Z,11.00
2023-02-18T17:34:20.206Z,11.00
2023-02-18T17:36:48.000Z,11.00
2023-02-18T17:39:18.247Z,11.00
2023-02-18T17:41:46.109Z,11.00
2023-02-18T17:44:16.707Z,11.00
2023-02-18T17:46:44.684Z,10.90
2023-02-18T17:49:12.531Z,11.00
2023-02-18T17:51:40.335Z,11.00
2023-02-18T17:54:13.365Z,10.90
2023-02-18T17:56:41.619Z,10.90
2023-02-18T17:59:09.548Z,10.90
2023-02-18T18:01:39.052Z,10.90
2023-02-18T18:04:11.578Z,10.90
2023-02-18T18:06:39.390Z,10.80
2023-02-18T18:09:07.205Z,10.80
2023-02-18T18:11:35.322Z,10.80
2023-02-18T18:14:03.119Z,10.80
2023-02-18T18:16:30.929Z,10.80
2023-02-18T18:19:00.164Z,10.80
2023-02-18T18:21:31.855Z,10.80
2023-02-18T18:23:59.954Z,10.80
2023-02-18T18:26:27.817Z,10.80
2023-02-18T18:28:55.661Z,10.70
2023-02-18T18:31:23.661Z,10.70
2023-02-18T18:33:53.268Z,10.70
2023-02-18T18:36:25.013Z,10.70
2023-02-18T18:38:53.152Z,10.70
2023-02-18T18:41:23.241Z,10.60
2023-02-18T18:43:51.265Z,10.60
2023-02-18T18:46:19.207Z,10.60
2023-02-18T18:48:47.065Z,10.60
2023-02-18T18:51:16.825Z,10.60
2023-02-18T18:53:46.020Z,10.60
2023-02-18T18:56:14.188Z,10.60
2023-02-18T18:58:42.037Z,10.60
2023-02-18T19:01:16.106Z,10.50
2023-02-18T19:03:45.001Z,10.60
2023-02-18T19:06:13.469Z,10.60
2023-02-18T19:08:41.358Z,10.50
2023-02-18T19:11:12.621Z,10.60
2023-02-18T19:13:40.440Z,10.50
2023-02-18T19:16:13.870Z,10.60
2023-02-18T19:18:41.693Z,10.50
2023-02-18T19:21:09.795Z,10.50
2023-02-18T19:23:37.839Z,10.50
2023-02-18T19:26:06.239Z,10.50
2023-02-18T19:28:35.388Z,10.40
2023-02-18T19:31:03.379Z,10.40
2023-02-18T19:33:31.153Z,10.50
2023-02-18T19:35:58.935Z,10.40
2023-02-18T19:38:26.792Z,10.40
2023-02-18T19:40:56.618Z,10.40
2023-02-18T19:43:24.412Z,10.40
2023-02-18T19:45:53.564Z,10.40
2023-02-18T19:48:23.234Z,10.40
2023-02-18T19:50:51.002Z,10.40
2023-02-18T19:53:19.344Z,10.40
2023-02-18T19:55:47.121Z,10.40
2023-02-18T19:58:14.921Z,10.40
2023-02-18T20:00:43.624Z,10.30
2023-02-18T20:03:12.752Z,10.30
2023-02-18T20:05:40.535Z,10.30
2023-02-18T20:08:08.764Z,10.30
2023-02-18T20:10:37.196Z,10.30
2023-02-18T20:13:10.315Z,10.30
2023-02-18T20:15:39.496Z,10.40
2023-02-18T20:18:07.380Z,10.30
2023-02-18T20:20:36.518Z,10.40
2023-02-18T20:23:04.292Z,10.40
2023-02-18T20:25:32.099Z,10.40
2023-02-18T20:28:01.614Z,10.30
2023-02-18T20:30:30.065Z,10.30
2023-02-18T20:32:57.936Z,10.30
2023-02-18T20:35:26.170Z,10.30
2023-02-18T20:37:55.277Z,10.30
2023-02-18T20:40:23.211Z,10.30
2023-02-18T20:42:51.294Z,10.30
2023-02-18T20:45:19.498Z,10.30
2023-02-18T20:47:47.313Z,10.30
2023-02-18T20:50:15.849Z,10.30
2023-02-18T20:52:43.733Z,10.40
2023-02-18T20:55:12.910Z,10.40
2023-02-18T20:57:40.728Z,10.30
2023-02-18T21:00:09.626Z,10.30
2023-02-18T21:02:37.417Z,10.40
2023-02-18T21:05:05.551Z,10.40
2023-02-18T21:07:33.778Z,10.40
2023-02-18T21:10:01.625Z,10.30
2023-02-18T21:12:30.817Z,10.30
2023-02-18T21:14:58.593Z,10.40
2023-02-18T21:17:26.455Z,10.30
2023-02-18T21:19:54.284Z,10.30
2023-02-18T21:22:22.108Z,10.30
2023-02-18T21:24:51.467Z,10.30
2023-02-18T21:27:19.299Z,10.30
2023-02-18T21:29:48.524Z,10.30
2023-02-18T21:32:16.423Z,10.30
2023-02-18T21:34:44.366Z,10.40
2023-02-18T21:37:12.343Z,10.30
2023-02-18T21:39:40.215Z,10.40
2023-02-18T21:42:07.988Z,10.40
2023-02-18T21:44:42.272Z,10.40
2023-02-18T21:47:12.332Z,10.30
2023-02-18T21:49:40.155Z,10.40
2023-02-18T21:52:11.029Z,10.30
2023-02-18T21:54:40.663Z,10.40
2023-02-18T21:57:11.634Z,10.30
2023-02-18T21:59:40.629Z,10.30
2023-02-18T22:02:12.896Z,10.30
2023-02-18T22:04:42.118Z,10.30
2023-02-18T22:07:09.913Z,10.30
2023-02-18T22:09:38.004Z,10.30
2023-02-18T22:12:06.583Z,10.30
2023-02-18T22:14:34.457Z,10.30
2023-02-18T22:17:02.390Z,10.30
2023-02-18T22:19:30.196Z,10.30
2023-02-18T22:22:00.362Z,10.30
2023-02-18T22:24:28.239Z,10.30
2023-02-18T22:26:56.412Z,10.30
2023-02-18T22:29:24.730Z,10.30
2023-02-18T22:31:53.339Z,10.30
2023-02-18T22:34:22.098Z,10.30
2023-02-18T22:36:50.333Z,10.30
2023-02-18T22:39:19.523Z,10.30
2023-02-18T22:41:47.471Z,10.20
2023-02-18T22:44:17.112Z,10.20
2023-02-18T22:46:45.130Z,10.20
2023-02-18T22:49:13.197Z,10.20
2023-02-18T22:51:42.835Z,10.20
2023-02-18T22:54:12.942Z,10.20
2023-02-18T22:56:42.497Z,10.20
2023-02-18T22:59:12.541Z,10.30
2023-02-18T23:01:41.987Z,10.30
2023-02-18T23:04:12.334Z,10.30
2023-02-18T23:06:42.175Z,10.20
2023-02-18T23:09:13.501Z,10.30
2023-02-18T23:11:42.647Z,10.30
2023-02-18T23:14:19.643Z,10.30
2023-02-18T23:17:06.639Z,10.30
2023-02-18T23:19:35.444Z,10.30
2023-02-18T23:22:03.849Z,10.30
2023-02-18T23:24:33.387Z,10.30
2023-02-18T23:27:03.050Z,10.30
2023-02-18T23:29:30.907Z,10.30
2023-02-18T23:31:58.901Z,10.30
2023-02-18T23:34:26.827Z,10.20
2023-02-18T23:36:54.645Z,10.20
2023-02-18T23:39:24.043Z,10.30
2023-02-18T23:41:53.078Z,10.30
2023-02-18T23:44:24.685Z,10.30
2023-02-18T23:46:52.989Z,10.20
2023-02-18T23:49:23.001Z,10.20
2023-02-18T23:51:51.829Z,10.10
2023-02-18T23:54:20.615Z,10.20
2023-02-18T23:56:48.620Z,10.20
2023-02-18T23:59:16.723Z,10.10
